Terminal Aerodrome Forecast
Issued by NWS Tampa Bay Area, FL

Home | Current Version | Previous Version | Text Only | Print | Product List | Glossary On
Versions: 1 2 3 4 5 6 7 8 9 10 11 12 13 14 15 16
000
FTUS42 KTBW 011100
TAFSRQ
TAF
KSRQ 011123Z 0112/0212 27007KT P6SM VCSH SCT012 BKN035
     FM011500 26007KT P6SM VCTS SCT025CB BKN080
     FM012000 29008KT P6SM SCT035 SCT080 BKN250
     FM020000 VRB04KT P6SM FEW025 SCT250=

USA.gov is the U.S. government's official web portal to all federal, state and local government web resources and services.